Terminal Aerodrome Forecast
Issued by NWS

Home | Current Version | Previous Version | Text Only | Print | Product List | Glossary On
Versions: 1 2 3 4 5 6 7 8 9 10 11 12 13 14 15 16 17 18 19 20 21
000
FTUS41 KPHI 220200 AAA
TAFPNE
TAF AMD
KPNE 220244Z 2203/2224 36003KT P6SM BKN025
     FM221300 01004KT P6SM BKN250
     FM221500 05005KT P6SM OVC100
     FM221700 08005KT P6SM BKN050
      TEMPO 2217/2220 5SM -RASN
     FM222000 07004KT P6SM BKN025
      TEMPO 2221/2224 5SM -RA=

USA.gov is the U.S. government's official web portal to all federal, state and local government web resources and services.